createdAt,value
2019-02-17T00:02:08.049Z,37.10
2019-02-17T00:04:39.330Z,41.67
2019-02-17T00:07:09.821Z,34.37
2019-02-17T00:09:40.143Z,35.60
2019-02-17T00:12:11.007Z,33.97
2019-02-17T00:14:41.312Z,45.20
2019-02-17T00:17:11.720Z,43.93
2019-02-17T00:19:42.063Z,43.80
2019-02-17T00:22:12.365Z,46.17
2019-02-17T00:24:42.886Z,49.83
2019-02-17T00:27:13.307Z,45.23
2019-02-17T00:29:43.675Z,59.77
2019-02-17T00:32:14.159Z,51.67
2019-02-17T00:34:44.542Z,54.77
2019-02-17T00:37:14.967Z,51.00
2019-02-17T00:39:45.591Z,60.37
2019-02-17T00:42:16.030Z,51.00
2019-02-17T00:44:46.491Z,54.33
2019-02-17T00:47:18.033Z,67.50
2019-02-17T00:49:50.422Z,58.93
2019-02-17T00:52:21.048Z,57.40
2019-02-17T00:54:51.383Z,58.27
2019-02-17T00:57:22.103Z,53.43
2019-02-17T00:59:52.530Z,50.77
2019-02-17T01:02:25.174Z,51.53
2019-02-17T01:04:55.531Z,48.07
2019-02-17T01:07:28.639Z,54.40
2019-02-17T01:09:59.060Z,50.60
2019-02-17T01:12:29.679Z,42.07
2019-02-17T01:14:59.993Z,48.17
2019-02-17T01:17:30.331Z,44.30
2019-02-17T01:20:00.667Z,62.80
2019-02-17T01:22:31.177Z,58.37
2019-02-17T01:25:01.571Z,47.73
2019-02-17T01:27:32.192Z,48.10
2019-02-17T01:30:02.562Z,52.43
2019-02-17T01:32:33.982Z,63.93
2019-02-17T01:35:04.434Z,53.73
2019-02-17T01:37:34.747Z,70.83
2019-02-17T01:40:05.766Z,48.13
2019-02-17T01:42:36.291Z,66.13
2019-02-17T01:45:07.642Z,49.63
2019-02-17T01:47:38.040Z,54.57
2019-02-17T01:50:08.783Z,44.03
2019-02-17T01:52:39.094Z,44.60
2019-02-17T01:55:09.547Z,58.13
2019-02-17T01:57:41.795Z,49.47
2019-02-17T02:00:12.991Z,48.33
2019-02-17T02:02:43.315Z,52.73
2019-02-17T02:05:13.777Z,46.63
2019-02-17T02:07:44.627Z,51.30
2019-02-17T02:10:16.065Z,59.80
2019-02-17T02:12:47.591Z,42.43
2019-02-17T02:15:17.983Z,46.77
2019-02-17T02:17:48.468Z,53.03
2019-02-17T02:20:18.835Z,48.77
2019-02-17T02:22:49.346Z,37.20
2019-02-17T02:25:19.675Z,58.33
2019-02-17T02:27:52.651Z,49.57
2019-02-17T02:30:23.005Z,41.47
2019-02-17T02:32:53.495Z,44.17
2019-02-17T02:35:23.859Z,61.93
2019-02-17T02:37:54.239Z,45.27
2019-02-17T02:40:24.695Z,47.83
2019-02-17T02:42:56.295Z,54.67
2019-02-17T02:45:26.650Z,47.70
2019-02-17T02:47:57.178Z,44.67
2019-02-17T02:50:27.526Z,50.10
2019-02-17T02:52:59.629Z,49.13
2019-02-17T02:55:31.111Z,63.63
2019-02-17T02:58:01.638Z,55.90
2019-02-17T03:00:34.762Z,53.40
2019-02-17T03:03:05.226Z,61.73
2019-02-17T03:05:37.329Z,63.60
2019-02-17T03:08:08.014Z,60.13
2019-02-17T03:10:38.355Z,48.73
2019-02-17T03:13:09.122Z,46.37
2019-02-17T03:15:39.475Z,44.80
2019-02-17T03:18:10.009Z,47.80
2019-02-17T03:20:40.308Z,46.27
2019-02-17T03:23:10.593Z,40.77
2019-02-17T03:25:41.124Z,40.70
2019-02-17T03:28:11.723Z,44.43
2019-02-17T03:30:42.084Z,45.88
2019-02-17T03:33:12.441Z,48.07
2019-02-17T03:35:42.737Z,49.87
2019-02-17T03:38:13.979Z,48.13
2019-02-17T03:40:44.340Z,48.30
2019-02-17T03:43:15.183Z,55.87
2019-02-17T03:45:45.601Z,47.83
2019-02-17T03:48:15.982Z,62.60
2019-02-17T03:50:46.379Z,48.03
2019-02-17T03:53:16.722Z,46.60
2019-02-17T03:55:47.491Z,54.80
2019-02-17T03:58:17.982Z,64.73
2019-02-17T04:00:48.237Z,61.77
2019-02-17T04:03:18.581Z,66.63
2019-02-17T04:05:49.094Z,61.60
2019-02-17T04:08:19.439Z,57.77
2019-02-17T04:10:49.779Z,58.10
2019-02-17T04:13:20.586Z,55.10
2019-02-17T04:15:50.903Z,72.97
2019-02-17T04:18:21.410Z,59.10
2019-02-17T04:20:51.755Z,68.50
2019-02-17T04:23:30.928Z,71.47
2019-02-17T04:25:56.439Z,58.20
2019-02-17T04:28:27.091Z,63.50
2019-02-17T04:30:57.403Z,65.13
2019-02-17T04:33:29.519Z,61.80
2019-02-17T04:35:59.853Z,59.40
2019-02-17T04:38:30.340Z,60.87
2019-02-17T04:41:00.649Z,56.33
2019-02-17T04:43:31.301Z,57.10
2019-02-17T04:46:03.954Z,57.80
2019-02-17T04:48:34.404Z,61.70
2019-02-17T04:51:04.791Z,51.03
2019-02-17T04:53:37.496Z,50.40
2019-02-17T04:56:07.834Z,51.23
2019-02-17T04:58:38.636Z,60.47
2019-02-17T05:01:08.992Z,54.03
2019-02-17T05:03:39.604Z,62.73
2019-02-17T05:06:09.949Z,50.27
2019-02-17T05:08:43.258Z,57.40
2019-02-17T05:11:13.550Z,55.60
2019-02-17T05:13:44.228Z,53.40
2019-02-17T05:16:14.631Z,52.37
2019-02-17T05:18:44.932Z,51.90
2019-02-17T05:21:15.331Z,57.03
2019-02-17T05:23:45.622Z,58.57
2019-02-17T05:26:16.126Z,52.80
2019-02-17T05:28:46.656Z,49.70
2019-02-17T05:31:17.069Z,55.37
2019-02-17T05:33:47.520Z,60.17
2019-02-17T05:36:18.072Z,53.33
2019-02-17T05:38:48.440Z,50.63
2019-02-17T05:41:19.863Z,57.33
2019-02-17T05:43:50.291Z,53.23
2019-02-17T05:46:23.391Z,49.57
2019-02-17T05:48:55.375Z,55.17
2019-02-17T05:51:25.639Z,58.27
2019-02-17T05:53:57.583Z,46.73
2019-02-17T05:56:28.108Z,53.33
2019-02-17T05:58:58.619Z,42.83
2019-02-17T06:01:28.910Z,50.57
2019-02-17T06:03:59.363Z,40.43
2019-02-17T06:06:31.588Z,41.87
2019-02-17T06:09:01.855Z,49.53
2019-02-17T06:11:33.300Z,57.27
2019-02-17T06:14:03.915Z,51.40
2019-02-17T06:16:34.328Z,40.57
2019-02-17T06:19:04.704Z,37.93
2019-02-17T06:21:40.692Z,38.87
2019-02-17T06:24:10.995Z,49.20
2019-02-17T06:26:41.692Z,74.27
2019-02-17T06:29:12.123Z,78.20
2019-02-17T06:31:42.735Z,42.53
2019-02-17T06:34:13.063Z,69.17
2019-02-17T06:36:43.547Z,61.63
2019-02-17T06:39:13.995Z,46.60
2019-02-17T06:41:44.542Z,57.40
2019-02-17T06:44:15.109Z,67.83
2019-02-17T06:46:49.335Z,74.10
2019-02-17T06:49:19.763Z,74.13
2019-02-17T06:51:50.175Z,54.57
2019-02-17T06:54:20.459Z,45.00
2019-02-17T06:57:18.863Z,55.60
2019-02-17T06:59:50.908Z,61.50
2019-02-17T07:02:21.449Z,73.10
2019-02-17T07:05:22.747Z,57.83
2019-02-17T07:07:53.263Z,44.50
2019-02-17T07:10:23.595Z,67.50
2019-02-17T07:12:54.111Z,64.33
2019-02-17T07:15:25.437Z,85.83
2019-02-17T07:17:55.746Z,59.27
2019-02-17T07:20:26.147Z,58.93
2019-02-17T07:22:56.471Z,63.67
2019-02-17T07:25:30.008Z,57.70
2019-02-17T07:27:59.131Z,72.80
2019-02-17T07:30:29.766Z,38.77
2019-02-17T07:33:00.154Z,71.97
2019-02-17T07:35:30.467Z,43.10
2019-02-17T07:38:01.143Z,89.03
2019-02-17T07:40:31.452Z,61.50
2019-02-17T07:43:01.999Z,53.67
2019-02-17T07:45:32.542Z,49.87
2019-02-17T07:48:02.961Z,82.23
2019-02-17T07:50:33.360Z,49.63
2019-02-17T07:53:03.658Z,47.07
2019-02-17T07:55:33.950Z,42.63
2019-02-17T07:58:04.421Z,37.53
2019-02-17T08:00:34.950Z,50.10
2019-02-17T08:03:05.339Z,49.90
2019-02-17T08:05:35.619Z,44.90
2019-02-17T08:08:06.139Z,50.27
2019-02-17T08:10:36.483Z,45.07
2019-02-17T08:13:07.035Z,37.07
2019-02-17T08:15:37.599Z,42.43
2019-02-17T08:18:08.056Z,38.43
2019-02-17T08:20:38.343Z,35.03
2019-02-17T08:23:08.943Z,44.70
2019-02-17T08:25:39.252Z,33.70
2019-02-17T08:28:09.651Z,43.70
2019-02-17T08:30:40.446Z,35.83
2019-02-17T08:33:10.682Z,37.23
2019-02-17T08:35:41.123Z,41.20
2019-02-17T08:38:11.435Z,59.57
2019-02-17T08:40:41.874Z,45.33
2019-02-17T08:43:12.282Z,31.93
2019-02-17T08:45:42.687Z,32.70
2019-02-17T08:48:13.227Z,51.20
2019-02-17T08:50:43.563Z,48.13
2019-02-17T08:53:14.044Z,41.23
2019-02-17T08:55:44.267Z,51.70
2019-02-17T08:58:14.719Z,44.13
2019-02-17T09:00:45.372Z,58.47
2019-02-17T09:03:15.734Z,54.37
2019-02-17T09:05:46.575Z,50.30
2019-02-17T09:08:16.953Z,59.83
2019-02-17T09:10:47.299Z,59.77
2019-02-17T09:13:19.343Z,49.43
2019-02-17T09:15:52.483Z,37.90
2019-02-17T09:18:24.001Z,38.93
2019-02-17T09:20:54.564Z,46.80
2019-02-17T09:23:26.456Z,39.97
2019-02-17T09:25:56.814Z,46.10
2019-02-17T09:28:27.163Z,33.57
2019-02-17T09:30:57.647Z,34.93
2019-02-17T09:33:28.204Z,34.80
2019-02-17T09:35:58.558Z,30.60
2019-02-17T09:38:28.979Z,39.10
2019-02-17T09:40:59.268Z,36.87
2019-02-17T09:43:32.198Z,29.00
2019-02-17T09:46:02.687Z,30.73
2019-02-17T09:48:33.170Z,25.57
2019-02-17T09:51:03.470Z,24.03
2019-02-17T09:53:33.895Z,23.10
2019-02-17T09:56:05.305Z,21.97
2019-02-17T09:58:35.772Z,24.70
2019-02-17T10:01:06.330Z,25.90
2019-02-17T10:03:36.718Z,22.80
2019-02-17T10:06:07.143Z,19.67
2019-02-17T10:08:37.546Z,22.40
2019-02-17T10:11:08.073Z,20.20
2019-02-17T10:13:38.579Z,20.37
2019-02-17T10:16:09.181Z,19.40
2019-02-17T10:18:39.592Z,17.50
2019-02-17T10:21:10.336Z,17.13
2019-02-17T10:23:40.791Z,14.97
2019-02-17T10:26:11.361Z,14.43
2019-02-17T10:28:42.518Z,13.47
2019-02-17T10:31:13.247Z,13.50
2019-02-17T10:33:43.731Z,17.13
2019-02-17T10:36:14.263Z,19.97
2019-02-17T10:38:44.598Z,19.70
2019-02-17T10:41:15.135Z,16.77
2019-02-17T10:43:45.507Z,17.40
2019-02-17T10:46:16.255Z,21.63
2019-02-17T10:48:51.775Z,26.10
2019-02-17T10:51:26.591Z,39.33
2019-02-17T10:53:59.083Z,20.70
2019-02-17T10:56:29.661Z,20.10
2019-02-17T10:58:59.983Z,25.23
2019-02-17T11:01:30.464Z,22.77
2019-02-17T11:04:06.163Z,31.13
2019-02-17T11:06:36.727Z,33.27
2019-02-17T11:09:20.306Z,35.03
2019-02-17T11:11:51.151Z,16.43
2019-02-17T11:14:21.555Z,17.23
2019-02-17T11:16:52.374Z,25.97
2019-02-17T11:19:22.771Z,24.40
2019-02-17T11:21:56.010Z,14.63
2019-02-17T11:24:26.456Z,17.47
2019-02-17T11:26:58.920Z,27.13
2019-02-17T11:29:30.221Z,23.20
2019-02-17T11:32:01.319Z,21.40
2019-02-17T11:34:31.703Z,31.43
2019-02-17T11:37:02.119Z,32.03
2019-02-17T11:39:32.496Z,31.43
2019-02-17T11:42:03.117Z,16.37
2019-02-17T11:44:33.450Z,17.17
2019-02-17T11:47:04.130Z,13.40
2019-02-17T11:49:34.478Z,11.07
2019-02-17T11:52:05.236Z,19.17
2019-02-17T11:54:35.573Z,10.90
2019-02-17T11:57:05.949Z,16.43
2019-02-17T11:59:36.485Z,13.47
2019-02-17T12:02:07.127Z,12.67
2019-02-17T12:04:37.519Z,15.10
2019-02-17T12:07:08.062Z,11.53
2019-02-17T12:09:38.385Z,13.83
2019-02-17T12:12:08.738Z,13.83
2019-02-17T12:14:39.133Z,13.70
2019-02-17T12:17:09.769Z,11.73
2019-02-17T12:19:40.239Z,14.87
2019-02-17T12:22:29.995Z,13.77
2019-02-17T12:25:07.187Z,12.47
2019-02-17T12:28:05.677Z,13.00
2019-02-17T12:30:36.827Z,14.30
2019-02-17T12:33:17.765Z,16.17
2019-02-17T12:35:39.344Z,14.57
2019-02-17T12:38:09.733Z,14.20
2019-02-17T12:40:40.177Z,13.83
2019-02-17T12:43:10.502Z,14.37
2019-02-17T12:45:41.103Z,17.17
2019-02-17T12:48:11.514Z,14.80
2019-02-17T12:50:44.450Z,17.30
2019-02-17T12:53:14.741Z,19.33
2019-02-17T12:55:45.211Z,17.80
2019-02-17T12:58:15.526Z,20.10
2019-02-17T13:00:46.144Z,19.50
2019-02-17T13:03:16.531Z,23.80
2019-02-17T13:05:47.020Z,22.33
2019-02-17T13:08:17.542Z,22.20
2019-02-17T13:10:48.067Z,22.33
2019-02-17T13:13:18.467Z,27.27
2019-02-17T13:15:48.878Z,21.77
2019-02-17T13:18:19.407Z,24.23
2019-02-17T13:20:50.639Z,24.20
2019-02-17T13:23:20.991Z,26.80
2019-02-17T13:25:51.419Z,27.83
2019-02-17T13:28:21.712Z,30.43
2019-02-17T13:30:53.716Z,26.37
2019-02-17T13:33:24.358Z,33.57
2019-02-17T13:35:54.799Z,33.70
2019-02-17T13:38:25.143Z,31.40
2019-02-17T13:40:55.499Z,31.17
2019-02-17T13:43:26.042Z,31.60
2019-02-17T13:45:56.394Z,31.10
2019-02-17T13:48:26.919Z,26.10
2019-02-17T13:50:57.299Z,34.50
2019-02-17T13:53:27.651Z,30.17
2019-02-17T13:55:57.972Z,31.43
2019-02-17T13:58:28.308Z,32.83
2019-02-17T14:00:58.638Z,35.57
2019-02-17T14:03:32.467Z,34.40
2019-02-17T14:06:02.984Z,41.90
2019-02-17T14:08:34.377Z,35.03
2019-02-17T14:11:04.921Z,33.20
2019-02-17T14:13:35.263Z,30.37
2019-02-17T14:16:05.747Z,31.20
2019-02-17T14:18:42.719Z,36.93
2019-02-17T14:21:13.049Z,33.97
2019-02-17T14:23:43.539Z,30.83
2019-02-17T14:26:13.911Z,39.97
2019-02-17T14:28:44.350Z,31.67
2019-02-17T14:31:14.726Z,34.03
2019-02-17T14:33:45.251Z,34.83
2019-02-17T14:36:15.607Z,38.63
2019-02-17T14:38:46.026Z,38.37
2019-02-17T14:41:16.401Z,36.10
2019-02-17T14:43:46.683Z,32.70
2019-02-17T14:46:17.136Z,32.23
2019-02-17T14:48:47.611Z,32.53
2019-02-17T14:51:17.981Z,36.47
2019-02-17T14:53:48.335Z,37.23
2019-02-17T14:56:19.153Z,40.23
2019-02-17T14:58:49.735Z,41.37
2019-02-17T15:01:20.339Z,38.67
2019-02-17T15:03:51.905Z,40.80
2019-02-17T15:06:22.424Z,48.07
2019-02-17T15:08:56.062Z,54.20
2019-02-17T15:11:26.457Z,45.00
2019-02-17T15:13:56.842Z,52.73
2019-02-17T15:16:27.509Z,41.00
2019-02-17T15:18:58.374Z,41.97
2019-02-17T15:21:29.103Z,43.83
2019-02-17T15:23:59.667Z,46.20
2019-02-17T15:26:30.775Z,44.77
2019-02-17T15:29:01.155Z,42.53
2019-02-17T15:31:31.620Z,45.43
2019-02-17T15:34:02.363Z,68.47
2019-02-17T15:36:32.916Z,77.27
2019-02-17T15:39:05.920Z,54.13
2019-02-17T15:41:36.399Z,107.00
2019-02-17T15:44:06.995Z,72.50
2019-02-17T15:46:37.395Z,102.87
2019-02-17T15:49:08.005Z,131.43
2019-02-17T15:51:38.575Z,127.73
2019-02-17T15:54:09.767Z,176.20
2019-02-17T15:56:40.259Z,160.87
2019-02-17T15:59:11.176Z,162.80
2019-02-17T16:01:41.601Z,237.10
2019-02-17T16:04:12.899Z,154.20
2019-02-17T16:06:43.294Z,204.30
2019-02-17T16:09:16.895Z,211.23
2019-02-17T16:11:47.375Z,228.27
2019-02-17T16:14:17.987Z,209.93
2019-02-17T16:16:51.488Z,438.33
2019-02-17T16:19:22.195Z,337.63
2019-02-17T16:21:52.595Z,293.33
2019-02-17T16:24:23.261Z,360.83
2019-02-17T16:26:53.608Z,350.00
2019-02-17T16:29:23.916Z,467.20
2019-02-17T16:31:54.591Z,523.00
2019-02-17T16:34:25.291Z,630.30
2019-02-17T16:36:55.828Z,398.60
2019-02-17T16:39:26.815Z,344.57
2019-02-17T16:41:57.435Z,444.58
2019-02-17T16:44:27.804Z,448.77
2019-02-17T16:46:58.276Z,540.37
2019-02-17T16:49:28.881Z,559.27
2019-02-17T16:51:59.436Z,280.47
2019-02-17T16:54:29.795Z,360.47
2019-02-17T16:57:00.351Z,407.07
2019-02-17T16:59:30.808Z,471.67
2019-02-17T17:02:01.491Z,515.07
2019-02-17T17:04:32.230Z,444.93
2019-02-17T17:07:03.948Z,413.73
2019-02-17T17:09:34.427Z,543.17
2019-02-17T17:12:05.490Z,546.87
2019-02-17T17:14:35.770Z,516.80
2019-02-17T17:17:06.521Z,340.03
2019-02-17T17:19:40.142Z,335.80
2019-02-17T17:22:10.718Z,434.07
2019-02-17T17:24:41.159Z,535.17
2019-02-17T17:27:11.994Z,378.13
2019-02-17T17:29:42.360Z,507.80
2019-02-17T17:32:13.211Z,391.77
2019-02-17T17:34:44.063Z,584.73
2019-02-17T17:37:16.107Z,589.73
2019-02-17T17:39:46.598Z,614.30
2019-02-17T17:42:17.743Z,393.10
2019-02-17T17:44:48.236Z,537.10
2019-02-17T17:47:19.264Z,577.77
2019-02-17T17:49:49.867Z,372.97
2019-02-17T17:52:20.495Z,568.23
2019-02-17T17:54:50.862Z,640.37
2019-02-17T17:57:21.443Z,619.73
2019-02-17T17:59:51.831Z,583.73
2019-02-17T18:02:22.596Z,481.03
2019-02-17T18:04:53.279Z,503.70
2019-02-17T18:07:23.791Z,451.17
2019-02-17T18:09:54.218Z,372.30
2019-02-17T18:12:24.524Z,686.67
2019-02-17T18:14:55.053Z,528.93
2019-02-17T18:17:25.543Z,697.55
2019-02-17T18:19:56.545Z,387.70
2019-02-17T18:22:27.030Z,587.63
2019-02-17T18:24:57.735Z,749.23
2019-02-17T18:27:28.228Z,495.30
2019-02-17T18:29:59.127Z,526.73
2019-02-17T18:32:29.587Z,613.03
2019-02-17T18:35:03.407Z,448.73
2019-02-17T18:37:33.997Z,509.47
2019-02-17T18:40:05.085Z,442.83
2019-02-17T18:42:35.518Z,667.93
2019-02-17T18:45:06.709Z,540.60
2019-02-17T18:47:38.291Z,387.40
2019-02-17T18:50:11.251Z,411.07
2019-02-17T18:52:42.395Z,551.20
2019-02-17T18:55:14.175Z,464.97
2019-02-17T18:57:50.665Z,344.90
2019-02-17T19:00:19.844Z,303.20
2019-02-17T19:02:50.418Z,363.07
2019-02-17T19:05:31.931Z,383.23
2019-02-17T19:07:58.606Z,337.87
2019-02-17T19:10:35.456Z,252.30
2019-02-17T19:13:06.772Z,285.63
2019-02-17T19:15:37.411Z,264.53
2019-02-17T19:18:13.314Z,132.20
2019-02-17T19:20:44.032Z,267.30
2019-02-17T19:23:15.158Z,307.13
2019-02-17T19:25:45.555Z,211.40
2019-02-17T19:28:15.915Z,282.60
2019-02-17T19:30:48.893Z,271.37
2019-02-17T19:33:19.766Z,298.97
2019-02-17T19:35:50.512Z,289.73
2019-02-17T19:38:24.471Z,481.77
2019-02-17T19:40:54.939Z,187.13
2019-02-17T19:43:25.468Z,300.63
2019-02-17T19:45:55.981Z,446.03
2019-02-17T19:48:26.635Z,336.67
2019-02-17T19:50:58.555Z,282.77
2019-02-17T19:53:29.124Z,389.50
2019-02-17T19:55:59.890Z,298.03
2019-02-17T19:58:30.419Z,379.60
2019-02-17T20:01:02.112Z,219.87
2019-02-17T20:03:51.023Z,504.70
2019-02-17T20:06:25.888Z,503.70
2019-02-17T20:08:56.663Z,295.63
2019-02-17T20:11:28.879Z,441.20
2019-02-17T20:13:59.496Z,507.80
2019-02-17T20:16:29.858Z,406.50
2019-02-17T20:19:00.703Z,390.23
2019-02-17T20:21:31.535Z,386.90
2019-02-17T20:24:08.188Z,359.13
2019-02-17T20:26:38.651Z,521.37
2019-02-17T20:29:09.159Z,467.23
2019-02-17T20:31:42.228Z,310.63
2019-02-17T20:34:16.167Z,462.20
2019-02-17T20:36:46.680Z,588.20
2019-02-17T20:39:17.382Z,479.03
2019-02-17T20:41:48.047Z,463.47
2019-02-17T20:44:18.575Z,448.43
2019-02-17T20:46:49.191Z,533.90
2019-02-17T20:49:20.100Z,350.10
2019-02-17T20:51:51.084Z,459.53
2019-02-17T20:54:23.179Z,549.53
2019-02-17T20:56:53.583Z,293.77
2019-02-17T20:59:24.515Z,466.17
2019-02-17T21:01:55.064Z,574.33
2019-02-17T21:04:25.671Z,383.87
2019-02-17T21:06:56.412Z,307.93
2019-02-17T21:09:27.091Z,601.93
2019-02-17T21:12:02.654Z,543.20
2019-02-17T21:14:33.398Z,237.93
2019-02-17T21:17:04.852Z,758.50
2019-02-17T21:19:35.512Z,570.73
2019-02-17T21:22:06.256Z,499.07
2019-02-17T21:24:37.036Z,506.27
2019-02-17T21:27:07.536Z,499.57
2019-02-17T21:29:44.364Z,487.60
2019-02-17T21:32:17.651Z,682.27
2019-02-17T21:34:48.374Z,393.57
2019-02-17T21:37:18.795Z,478.67
2019-02-17T21:39:51.346Z,490.23
2019-02-17T21:42:23.167Z,231.13
2019-02-17T21:44:57.854Z,354.17
2019-02-17T21:47:28.314Z,182.30
2019-02-17T21:50:03.406Z,504.37
2019-02-17T21:52:34.085Z,606.47
2019-02-17T21:55:05.931Z,333.50
2019-02-17T21:57:36.563Z,431.70
2019-02-17T22:00:11.476Z,559.63
2019-02-17T22:02:42.057Z,446.20
2019-02-17T22:05:13.776Z,412.87
2019-02-17T22:07:44.181Z,450.70
2019-02-17T22:10:15.496Z,384.73
2019-02-17T22:12:51.162Z,447.47
2019-02-17T22:15:21.791Z,268.83
2019-02-17T22:17:52.059Z,422.90
2019-02-17T22:20:25.823Z,324.03
2019-02-17T22:22:56.655Z,300.80
2019-02-17T22:25:29.961Z,241.67
2019-02-17T22:28:00.351Z,223.63
2019-02-17T22:30:33.352Z,205.77
2019-02-17T22:33:03.791Z,230.00
2019-02-17T22:35:34.384Z,253.47
2019-02-17T22:38:04.946Z,224.70
2019-02-17T22:40:35.743Z,233.77
2019-02-17T22:43:06.435Z,233.77
2019-02-17T22:45:37.017Z,190.50
2019-02-17T22:48:07.379Z,216.17
2019-02-17T22:50:38.035Z,210.57
2019-02-17T22:53:08.675Z,215.43
2019-02-17T22:55:39.379Z,228.17
2019-02-17T22:58:09.993Z,192.97
2019-02-17T23:00:57.159Z,213.63
2019-02-17T23:03:30.105Z,176.00
2019-02-17T23:06:00.799Z,199.70
2019-02-17T23:08:31.150Z,211.23
2019-02-17T23:11:02.739Z,208.67
2019-02-17T23:13:33.418Z,188.23
2019-02-17T23:16:06.311Z,186.17
2019-02-17T23:18:36.655Z,180.47
2019-02-17T23:21:07.663Z,177.33
2019-02-17T23:23:38.335Z,157.50
2019-02-17T23:26:08.943Z,142.53
2019-02-17T23:28:39.460Z,150.03
2019-02-17T23:31:11.171Z,169.20
2019-02-17T23:33:41.816Z,148.70
2019-02-17T23:36:12.603Z,150.23
2019-02-17T23:38:43.266Z,139.97
2019-02-17T23:41:13.726Z,150.00
2019-02-17T23:43:44.067Z,129.40
2019-02-17T23:46:14.671Z,143.20
2019-02-17T23:48:45.017Z,115.47
2019-02-17T23:51:15.513Z,135.80
2019-02-17T23:53:46.340Z,125.10
2019-02-17T23:56:16.995Z,126.97
2019-02-17T23:58:47.424Z,116.77
